Terminal Aerodrome Forecast
Issued by NWS

Home | Current Version | Previous Version | Text Only | Print | Product List | Glossary On
Versions: 1 2 3 4 5 6 7 8 9 10 11 12 13 14
461
FTUS46 KSGX 270716 AAA
TAFTRM
TAF AMD
KTRM 270716Z 2707/2806 33010KT P6SM FEW150
     FM280100 33020G35KT 3SM BLDU FEW005=

USA.gov is the U.S. government's official web portal to all federal, state and local government web resources and services.